createdAt,value
2023-03-30T00:00:18.401Z,46.92
2023-03-30T00:02:50.869Z,46.58
2023-03-30T00:05:19.411Z,45.80
2023-03-30T00:07:48.394Z,45.92
2023-03-30T00:10:19.151Z,47.87
2023-03-30T00:12:48.330Z,47.48
2023-03-30T00:15:18.066Z,46.39
2023-03-30T00:17:46.420Z,47.50
2023-03-30T00:20:17.286Z,47.36
2023-03-30T00:22:47.192Z,47.87
2023-03-30T00:25:16.849Z,46.32
2023-03-30T00:27:45.472Z,47.97
2023-03-30T00:30:15.599Z,50.99
2023-03-30T00:32:43.833Z,49.27
2023-03-30T00:35:13.153Z,48.38
2023-03-30T00:37:45.618Z,48.66
2023-03-30T00:40:20.210Z,49.76
2023-03-30T00:42:48.681Z,49.09
2023-03-30T00:45:20.733Z,49.69
2023-03-30T00:47:58.029Z,49.44
2023-03-30T00:50:30.555Z,48.44
2023-03-30T00:53:00.938Z,49.58
2023-03-30T00:55:32.974Z,47.09
2023-03-30T00:58:10.203Z,46.26
2023-03-30T01:00:40.233Z,45.81
2023-03-30T01:03:15.821Z,45.94
2023-03-30T01:05:46.142Z,46.53
2023-03-30T01:08:16.990Z,44.47
2023-03-30T01:10:45.485Z,44.06
2023-03-30T01:13:14.211Z,44.41
2023-03-30T01:15:54.414Z,43.66
2023-03-30T01:18:33.184Z,44.33
2023-03-30T01:21:24.636Z,44.50
2023-03-30T01:24:34.804Z,43.59
2023-03-30T01:27:19.123Z,43.02
2023-03-30T01:30:04.628Z,45.15
2023-03-30T01:33:00.050Z,44.41
2023-03-30T01:36:07.462Z,45.79
2023-03-30T01:39:02.410Z,45.81
2023-03-30T01:41:38.762Z,45.16
2023-03-30T01:44:13.575Z,46.87
2023-03-30T01:46:48.024Z,46.20
2023-03-30T01:49:23.912Z,45.37
2023-03-30T01:51:58.540Z,47.42
2023-03-30T01:54:33.891Z,46.33
2023-03-30T01:57:10.643Z,45.54
2023-03-30T01:59:44.976Z,46.70
2023-03-30T02:02:16.754Z,47.17
2023-03-30T02:04:48.415Z,45.52
2023-03-30T02:07:21.501Z,46.06
2023-03-30T02:09:52.653Z,44.73
2023-03-30T02:12:23.521Z,47.18
2023-03-30T02:14:53.461Z,49.27
2023-03-30T02:17:24.645Z,45.67
2023-03-30T02:19:54.575Z,46.46
2023-03-30T02:22:23.739Z,45.39
2023-03-30T02:24:55.222Z,46.07
2023-03-30T02:27:26.351Z,45.72
2023-03-30T02:29:54.678Z,44.64
2023-03-30T02:32:26.544Z,45.22
2023-03-30T02:35:19.837Z,46.61
2023-03-30T02:38:03.396Z,46.73
2023-03-30T02:40:40.857Z,51.45
2023-03-30T02:43:24.797Z,48.63
2023-03-30T02:46:01.673Z,43.95
2023-03-30T02:48:41.528Z,43.74
2023-03-30T02:51:23.544Z,47.18
2023-03-30T02:54:31.959Z,45.24
2023-03-30T02:57:28.579Z,44.35
2023-03-30T03:00:13.718Z,43.18
2023-03-30T03:02:44.588Z,42.12
2023-03-30T03:05:25.270Z,43.68
2023-03-30T03:08:19.512Z,43.03
2023-03-30T03:10:50.216Z,43.14
2023-03-30T03:13:20.713Z,45.14
2023-03-30T03:15:50.585Z,44.54
2023-03-30T03:18:18.523Z,43.84
2023-03-30T03:20:46.885Z,43.48
2023-03-30T03:23:15.129Z,41.89
2023-03-30T03:25:50.392Z,45.21
2023-03-30T03:28:20.519Z,43.95
2023-03-30T03:31:02.522Z,42.53
2023-03-30T03:33:32.348Z,41.64
2023-03-30T03:36:07.712Z,43.54
2023-03-30T03:38:40.192Z,41.47
2023-03-30T03:41:08.309Z,41.65
2023-03-30T03:43:36.920Z,41.99
2023-03-30T03:46:06.240Z,44.19
2023-03-30T03:48:34.512Z,41.94
2023-03-30T03:51:02.813Z,41.98
2023-03-30T03:53:34.531Z,42.98
2023-03-30T03:56:06.584Z,43.17
2023-03-30T03:58:35.351Z,43.32
2023-03-30T04:01:04.052Z,42.22
2023-03-30T04:03:33.873Z,42.04
2023-03-30T04:06:02.818Z,41.66
2023-03-30T04:08:31.374Z,42.57
2023-03-30T04:11:12.348Z,42.41
2023-03-30T04:13:56.279Z,41.26
2023-03-30T04:16:42.681Z,41.37
2023-03-30T04:19:31.607Z,42.25
2023-03-30T04:22:19.673Z,42.32
2023-03-30T04:25:22.749Z,41.31
2023-03-30T04:27:57.575Z,40.69
2023-03-30T04:30:59.964Z,40.90
2023-03-30T04:33:53.092Z,40.39
2023-03-30T04:36:48.639Z,39.90
2023-03-30T04:39:50.386Z,39.84
2023-03-30T04:42:37.847Z,39.85
2023-03-30T04:45:24.130Z,41.36
2023-03-30T04:47:55.012Z,40.58
2023-03-30T04:50:26.082Z,39.18
2023-03-30T04:53:14.957Z,39.08
2023-03-30T04:56:21.846Z,40.21
2023-03-30T04:59:16.003Z,40.93
2023-03-30T05:02:03.313Z,39.62
2023-03-30T05:04:48.414Z,39.79
2023-03-30T05:07:16.352Z,38.36
2023-03-30T05:10:10.404Z,38.76
2023-03-30T05:12:57.286Z,39.13
2023-03-30T05:15:38.046Z,38.71
2023-03-30T05:18:26.244Z,39.57
2023-03-30T05:21:08.720Z,39.90
2023-03-30T05:23:55.679Z,39.15
2023-03-30T05:26:43.813Z,38.61
2023-03-30T05:29:32.529Z,38.89
2023-03-30T05:32:19.240Z,38.84
2023-03-30T05:35:07.685Z,38.75
2023-03-30T05:37:55.336Z,37.63
2023-03-30T05:40:53.775Z,38.96
2023-03-30T05:43:41.867Z,38.33
2023-03-30T05:46:35.839Z,38.92
2023-03-30T05:49:24.702Z,39.57
2023-03-30T05:52:05.849Z,38.38
2023-03-30T05:54:52.115Z,39.44
2023-03-30T05:57:34.048Z,37.86
2023-03-30T06:00:19.400Z,37.74
2023-03-30T06:03:00.621Z,37.27
2023-03-30T06:05:33.860Z,36.72
2023-03-30T06:08:02.017Z,37.48
2023-03-30T06:10:30.077Z,38.50
2023-03-30T06:12:58.111Z,37.63
2023-03-30T06:15:45.839Z,38.29
2023-03-30T06:18:18.890Z,37.74
2023-03-30T06:21:02.798Z,38.88
2023-03-30T06:23:31.498Z,38.84
2023-03-30T06:26:05.791Z,39.23
2023-03-30T06:28:37.077Z,38.09
2023-03-30T06:31:12.028Z,37.56
2023-03-30T06:33:45.852Z,37.56
2023-03-30T06:36:15.553Z,37.36
2023-03-30T06:38:46.548Z,36.25
2023-03-30T06:41:17.239Z,36.06
2023-03-30T06:43:48.636Z,35.62
2023-03-30T06:46:21.706Z,36.17
2023-03-30T06:48:52.112Z,36.92
2023-03-30T06:51:42.668Z,36.72
2023-03-30T06:54:10.927Z,38.06
2023-03-30T06:56:43.687Z,37.21
2023-03-30T06:59:15.674Z,35.65
2023-03-30T07:02:19.731Z,35.82
2023-03-30T07:04:56.760Z,37.25
2023-03-30T07:07:29.583Z,36.26
2023-03-30T07:09:57.556Z,36.92
2023-03-30T07:12:25.564Z,37.04
2023-03-30T07:14:54.361Z,37.02
2023-03-30T07:17:26.458Z,37.19
2023-03-30T07:19:55.188Z,35.76
2023-03-30T07:22:23.482Z,35.89
2023-03-30T07:24:51.640Z,36.76
2023-03-30T07:27:19.990Z,35.05
2023-03-30T07:29:51.097Z,34.73
2023-03-30T07:32:19.230Z,34.43
2023-03-30T07:34:48.642Z,33.95
2023-03-30T07:37:20.518Z,33.81
2023-03-30T07:39:49.463Z,34.00
2023-03-30T07:42:17.867Z,33.86
2023-03-30T07:44:45.955Z,33.30
2023-03-30T07:47:18.138Z,34.07
2023-03-30T07:49:46.020Z,33.51
2023-03-30T07:52:16.601Z,32.82
2023-03-30T07:54:52.511Z,33.92
2023-03-30T07:57:26.560Z,33.09
2023-03-30T07:59:54.444Z,33.58
2023-03-30T08:02:40.094Z,33.48
2023-03-30T08:05:12.264Z,33.41
2023-03-30T08:07:54.842Z,33.22
2023-03-30T08:10:28.527Z,33.75
2023-03-30T08:12:56.902Z,33.35
2023-03-30T08:15:24.866Z,33.60
2023-03-30T08:17:52.827Z,32.39
2023-03-30T08:20:20.860Z,32.95
2023-03-30T08:22:49.070Z,33.22
2023-03-30T08:25:18.838Z,33.68
2023-03-30T08:27:47.352Z,35.79
2023-03-30T08:30:16.505Z,35.11
2023-03-30T08:32:44.597Z,35.07
2023-03-30T08:35:13.331Z,33.56
2023-03-30T08:37:41.431Z,33.66
2023-03-30T08:40:12.825Z,32.91
2023-03-30T08:42:59.901Z,34.14
2023-03-30T08:45:35.880Z,34.22
2023-03-30T08:48:06.392Z,34.35
2023-03-30T08:50:36.251Z,35.65
2023-03-30T08:53:05.518Z,35.73
2023-03-30T08:55:40.469Z,37.65
2023-03-30T08:58:18.640Z,36.33
2023-03-30T09:00:50.788Z,36.50
2023-03-30T09:03:26.272Z,35.68
2023-03-30T09:06:00.378Z,34.78
2023-03-30T09:08:31.990Z,34.37
2023-03-30T09:11:01.976Z,33.78
2023-03-30T09:13:35.312Z,33.32
2023-03-30T09:16:15.792Z,34.06
2023-03-30T09:18:45.449Z,34.40
2023-03-30T09:21:14.707Z,35.18
2023-03-30T09:23:43.014Z,33.72
2023-03-30T09:26:20.390Z,32.35
2023-03-30T09:29:00.005Z,32.21
2023-03-30T09:31:36.178Z,32.49
2023-03-30T09:34:08.784Z,33.87
2023-03-30T09:36:43.080Z,33.63
2023-03-30T09:39:12.630Z,33.21
2023-03-30T09:42:08.563Z,34.31
2023-03-30T09:44:42.787Z,34.18
2023-03-30T09:47:22.095Z,34.92
2023-03-30T09:49:50.741Z,35.29
2023-03-30T09:52:23.106Z,36.89
2023-03-30T09:54:51.104Z,45.44
2023-03-30T09:57:30.433Z,100.00
2023-03-30T10:00:01.879Z,63.37
2023-03-30T10:02:39.932Z,58.31
2023-03-30T10:05:18.502Z,57.01
2023-03-30T10:07:55.115Z,53.64
2023-03-30T10:10:34.919Z,51.63
2023-03-30T10:13:15.144Z,49.57
2023-03-30T10:15:48.480Z,47.42
2023-03-30T10:18:25.222Z,47.28
2023-03-30T10:20:55.231Z,44.92
2023-03-30T10:23:25.080Z,43.00
2023-03-30T10:26:03.767Z,42.51
2023-03-30T10:28:33.840Z,42.79
2023-03-30T10:31:06.551Z,42.02
2023-03-30T10:33:41.428Z,41.54
2023-03-30T10:36:10.540Z,41.13
2023-03-30T10:38:42.082Z,40.35
2023-03-30T10:41:12.717Z,41.51
2023-03-30T10:43:41.200Z,46.80
2023-03-30T10:46:20.035Z,54.38
2023-03-30T10:49:04.836Z,85.85
2023-03-30T10:51:42.141Z,66.10
2023-03-30T10:54:17.756Z,60.43
2023-03-30T10:56:48.266Z,57.88
2023-03-30T10:59:29.453Z,100.00
2023-03-30T11:02:18.095Z,64.66
2023-03-30T11:04:48.151Z,66.13
2023-03-30T11:07:22.805Z,69.00
2023-03-30T11:09:54.968Z,64.87
2023-03-30T11:12:36.361Z,65.26
2023-03-30T11:15:08.301Z,65.20
2023-03-30T11:17:45.720Z,62.70
2023-03-30T11:20:23.720Z,62.46
2023-03-30T11:22:56.532Z,60.64
2023-03-30T11:25:28.242Z,57.84
2023-03-30T11:28:04.828Z,56.05
2023-03-30T11:30:35.266Z,55.85
2023-03-30T11:33:13.020Z,55.86
2023-03-30T11:35:46.569Z,56.58
2023-03-30T11:38:18.961Z,56.59
2023-03-30T11:40:48.820Z,57.36
2023-03-30T11:43:18.756Z,52.20
2023-03-30T11:46:04.025Z,50.53
2023-03-30T11:49:00.996Z,51.80
2023-03-30T11:51:49.262Z,49.71
2023-03-30T11:54:38.711Z,47.55
2023-03-30T11:57:17.261Z,44.52
2023-03-30T11:59:56.367Z,45.21
2023-03-30T12:02:31.064Z,45.65
2023-03-30T12:05:04.912Z,42.60
2023-03-30T12:07:41.089Z,43.59
2023-03-30T12:10:16.863Z,41.75
2023-03-30T12:12:45.863Z,40.03
2023-03-30T12:15:28.967Z,39.17
2023-03-30T12:18:02.313Z,41.00
2023-03-30T12:20:36.968Z,38.59
2023-03-30T12:23:17.597Z,39.42
2023-03-30T12:26:03.605Z,39.71
2023-03-30T12:31:18.033Z,41.34
2023-03-30T12:33:48.706Z,39.52
2023-03-30T12:36:27.155Z,37.96
2023-03-30T12:39:02.273Z,37.14
2023-03-30T12:41:41.386Z,36.40
2023-03-30T12:44:25.945Z,36.65
2023-03-30T12:47:07.010Z,35.46
2023-03-30T12:49:49.572Z,34.25
2023-03-30T12:52:28.071Z,34.91
2023-03-30T12:55:16.311Z,33.89
2023-03-30T12:57:58.832Z,35.02
2023-03-30T13:00:45.809Z,34.43
2023-03-30T13:03:40.683Z,33.77
2023-03-30T13:06:19.755Z,33.84
2023-03-30T13:08:54.612Z,35.08
2023-03-30T13:11:23.663Z,37.25
2023-03-30T13:13:58.553Z,36.27
2023-03-30T13:16:49.899Z,37.09
2023-03-30T13:19:28.121Z,37.42
2023-03-30T13:21:58.994Z,35.45
2023-03-30T13:24:37.301Z,34.13
2023-03-30T13:27:22.303Z,35.11
2023-03-30T13:29:53.603Z,34.02
2023-03-30T13:32:28.697Z,35.25
2023-03-30T13:35:10.890Z,33.35
2023-03-30T13:38:08.534Z,33.91
2023-03-30T13:40:54.565Z,33.51
2023-03-30T13:43:43.958Z,35.17
2023-03-30T13:46:21.943Z,35.70
2023-03-30T13:49:06.419Z,35.97
2023-03-30T13:51:34.736Z,36.17
2023-03-30T13:54:06.505Z,36.50
2023-03-30T13:56:40.170Z,37.57
2023-03-30T13:59:13.482Z,36.08
2023-03-30T14:01:42.619Z,36.65
2023-03-30T14:04:13.729Z,37.80
2023-03-30T14:06:45.823Z,37.33
2023-03-30T14:09:19.762Z,36.80
2023-03-30T14:11:52.078Z,37.70
2023-03-30T14:14:23.830Z,35.93
2023-03-30T14:16:51.911Z,35.24
2023-03-30T14:19:25.303Z,35.63
2023-03-30T14:21:57.854Z,35.02
2023-03-30T14:24:30.953Z,34.86
2023-03-30T14:27:08.674Z,35.70
2023-03-30T14:29:45.685Z,33.84
2023-03-30T14:32:15.595Z,36.50
2023-03-30T14:34:47.607Z,37.66
2023-03-30T14:37:15.686Z,39.08
2023-03-30T14:39:46.519Z,38.65
2023-03-30T14:42:19.027Z,37.88
2023-03-30T14:44:49.448Z,37.09
2023-03-30T14:47:21.338Z,36.13
2023-03-30T14:49:51.693Z,36.66
2023-03-30T14:52:21.526Z,36.28
2023-03-30T14:55:05.196Z,35.88
2023-03-30T14:57:39.882Z,36.64
2023-03-30T15:00:20.494Z,35.80
2023-03-30T15:02:51.328Z,34.40
2023-03-30T15:05:20.113Z,34.01
2023-03-30T15:07:49.949Z,32.86
2023-03-30T15:10:26.596Z,34.13
2023-03-30T15:12:58.328Z,33.92
2023-03-30T15:15:28.941Z,34.97
2023-03-30T15:17:57.543Z,34.38
2023-03-30T15:20:27.645Z,34.08
2023-03-30T15:22:56.974Z,35.06
2023-03-30T15:25:33.838Z,34.86
2023-03-30T15:28:07.068Z,36.35
2023-03-30T15:30:38.837Z,34.83
2023-03-30T15:33:08.079Z,35.21
2023-03-30T15:35:38.187Z,35.51
2023-03-30T15:38:17.045Z,34.86
2023-03-30T15:40:47.417Z,35.00
2023-03-30T15:43:19.744Z,36.44
2023-03-30T15:45:54.018Z,37.69
2023-03-30T15:48:29.341Z,39.78
2023-03-30T15:51:04.607Z,47.78
2023-03-30T15:53:41.406Z,42.25
2023-03-30T15:56:14.685Z,45.65
2023-03-30T15:58:44.313Z,43.99
2023-03-30T16:01:15.890Z,43.86
2023-03-30T16:03:52.072Z,42.36
2023-03-30T16:06:21.602Z,38.22
2023-03-30T16:08:49.611Z,37.67
2023-03-30T16:11:18.683Z,38.28
2023-03-30T16:13:50.261Z,38.38
2023-03-30T16:16:18.794Z,39.59
2023-03-30T16:18:47.219Z,39.29
2023-03-30T16:21:15.782Z,40.14
2023-03-30T16:23:44.187Z,39.55
2023-03-30T16:26:12.640Z,39.68
2023-03-30T16:28:42.753Z,39.29
2023-03-30T16:31:19.327Z,39.65
2023-03-30T16:33:49.927Z,39.23
2023-03-30T16:36:19.616Z,37.82
2023-03-30T16:38:47.878Z,39.55
2023-03-30T16:41:19.534Z,38.40
2023-03-30T16:43:48.078Z,39.46
2023-03-30T16:46:19.593Z,40.17
2023-03-30T16:48:47.900Z,39.44
2023-03-30T16:51:16.440Z,39.82
2023-03-30T16:53:44.827Z,40.40
2023-03-30T16:56:17.695Z,40.66
2023-03-30T16:58:46.216Z,39.85
2023-03-30T17:01:18.867Z,38.69
2023-03-30T17:03:49.094Z,39.14
2023-03-30T17:06:17.264Z,40.02
2023-03-30T17:08:46.153Z,39.97
2023-03-30T17:11:14.429Z,40.40
2023-03-30T17:13:43.661Z,39.65
2023-03-30T17:16:13.876Z,39.64
2023-03-30T17:18:42.121Z,40.31
2023-03-30T17:21:16.667Z,39.78
2023-03-30T17:23:47.945Z,38.58
2023-03-30T17:26:16.506Z,40.67
2023-03-30T17:28:44.950Z,41.33
2023-03-30T17:31:17.001Z,40.63
2023-03-30T17:33:45.401Z,39.62
2023-03-30T17:36:19.318Z,39.01
2023-03-30T17:38:47.907Z,38.29
2023-03-30T17:41:17.090Z,38.68
2023-03-30T17:43:45.510Z,39.83
2023-03-30T17:46:15.146Z,40.44
2023-03-30T17:48:43.142Z,39.90
2023-03-30T17:51:11.572Z,40.51
2023-03-30T17:53:40.988Z,38.97
2023-03-30T17:56:18.641Z,38.89
2023-03-30T17:58:48.429Z,39.21
2023-03-30T18:01:16.934Z,39.87
2023-03-30T18:03:45.353Z,38.80
2023-03-30T18:06:14.398Z,40.52
2023-03-30T18:08:44.231Z,41.21
2023-03-30T18:11:16.424Z,40.28
2023-03-30T18:13:44.580Z,39.52
2023-03-30T18:16:29.484Z,40.64
2023-03-30T18:18:59.438Z,40.57
2023-03-30T18:21:27.396Z,40.19
2023-03-30T18:23:56.966Z,40.65
2023-03-30T18:26:25.123Z,40.64
2023-03-30T18:28:53.058Z,39.67
2023-03-30T18:31:22.241Z,39.58
2023-03-30T18:33:53.066Z,39.24
2023-03-30T18:36:22.319Z,39.91
2023-03-30T18:38:54.690Z,40.29
2023-03-30T18:41:24.239Z,41.41
2023-03-30T18:43:52.196Z,39.95
2023-03-30T18:46:20.324Z,40.23
2023-03-30T18:48:48.618Z,41.01
2023-03-30T18:51:16.465Z,41.82
2023-03-30T18:53:44.419Z,41.22
2023-03-30T18:56:13.593Z,41.01
2023-03-30T18:58:43.177Z,41.75
2023-03-30T19:01:13.290Z,40.72
2023-03-30T19:03:42.133Z,40.72
2023-03-30T19:06:13.858Z,41.73
2023-03-30T19:08:43.528Z,42.50
2023-03-30T19:11:14.986Z,41.71
2023-03-30T19:13:44.263Z,42.24
2023-03-30T19:16:12.217Z,41.88
2023-03-30T19:18:40.237Z,42.28
2023-03-30T19:21:08.324Z,42.21
2023-03-30T19:23:36.419Z,40.47
2023-03-30T19:26:04.384Z,42.01
2023-03-30T19:28:33.283Z,41.96
2023-03-30T19:31:06.744Z,41.51
2023-03-30T19:33:34.750Z,41.85
2023-03-30T19:36:03.104Z,42.07
2023-03-30T19:38:31.087Z,41.09
2023-03-30T19:41:00.907Z,41.15
2023-03-30T19:43:30.280Z,41.04
2023-03-30T19:45:59.014Z,42.66
2023-03-30T19:48:28.916Z,42.07
2023-03-30T19:50:57.548Z,42.76
2023-03-30T19:53:26.181Z,42.32
2023-03-30T19:55:55.090Z,41.36
2023-03-30T19:58:23.924Z,41.78
2023-03-30T20:00:52.208Z,42.43
2023-03-30T20:03:21.254Z,41.52
2023-03-30T20:05:51.162Z,42.51
2023-03-30T20:08:24.245Z,42.22
2023-03-30T20:10:53.609Z,41.83
2023-03-30T20:13:23.958Z,42.47
2023-03-30T20:15:55.827Z,42.14
2023-03-30T20:18:24.073Z,41.90
2023-03-30T20:20:53.403Z,41.94
2023-03-30T20:23:21.435Z,42.14
2023-03-30T20:25:50.523Z,41.87
2023-03-30T20:28:18.457Z,43.75
2023-03-30T20:30:46.251Z,43.07
2023-03-30T20:33:14.398Z,43.21
2023-03-30T20:35:43.035Z,43.74
2023-03-30T20:38:12.498Z,42.46
2023-03-30T20:40:40.264Z,43.23
2023-03-30T20:43:10.229Z,43.45
2023-03-30T20:45:46.382Z,43.04
2023-03-30T20:48:26.043Z,43.87
2023-03-30T20:50:55.277Z,44.00
2023-03-30T20:53:24.975Z,43.15
2023-03-30T20:55:52.985Z,43.58
2023-03-30T20:58:22.170Z,43.15
2023-03-30T21:00:52.019Z,43.24
2023-03-30T21:03:20.308Z,44.88
2023-03-30T21:05:58.564Z,45.81
2023-03-30T21:08:27.822Z,42.86
2023-03-30T21:10:55.977Z,43.83
2023-03-30T21:13:23.998Z,44.30
2023-03-30T21:15:57.390Z,43.28
2023-03-30T21:18:25.521Z,44.91
2023-03-30T21:20:53.607Z,44.26
2023-03-30T21:23:22.282Z,43.50
2023-03-30T21:25:54.591Z,44.28
2023-03-30T21:28:22.585Z,45.00
2023-03-30T21:30:50.349Z,45.49
2023-03-30T21:33:18.298Z,46.17
2023-03-30T21:35:49.807Z,46.28
2023-03-30T21:38:18.300Z,44.23
2023-03-30T21:40:58.250Z,46.94
2023-03-30T21:43:26.682Z,44.97
2023-03-30T21:45:56.018Z,45.40
2023-03-30T21:48:24.404Z,46.26
2023-03-30T21:50:58.242Z,45.05
2023-03-30T21:53:26.133Z,44.93
2023-03-30T21:55:54.406Z,45.54
2023-03-30T21:58:24.169Z,46.95
2023-03-30T22:01:01.254Z,45.05
2023-03-30T22:03:39.117Z,44.06
2023-03-30T22:06:08.728Z,44.78
2023-03-30T22:08:37.336Z,43.77
2023-03-30T22:11:07.078Z,44.29
2023-03-30T22:13:36.354Z,46.38
2023-03-30T22:16:07.182Z,44.66
2023-03-30T22:18:35.722Z,44.70
2023-03-30T22:21:06.150Z,46.45
2023-03-30T22:23:34.176Z,47.23
2023-03-30T22:26:02.014Z,46.09
2023-03-30T22:28:29.951Z,43.91
2023-03-30T22:30:59.318Z,45.48
2023-03-30T22:33:28.923Z,45.91
2023-03-30T22:35:57.581Z,44.76
2023-03-30T22:38:25.448Z,45.58
2023-03-30T22:41:04.614Z,44.99
2023-03-30T22:43:34.824Z,44.91
2023-03-30T22:46:04.504Z,44.99
2023-03-30T22:48:32.957Z,43.71
2023-03-30T22:51:03.262Z,44.02
2023-03-30T22:53:31.827Z,44.69
2023-03-30T22:55:59.925Z,45.77
2023-03-30T22:58:28.790Z,45.25
2023-03-30T23:01:01.015Z,44.87
2023-03-30T23:03:30.655Z,43.79
2023-03-30T23:06:01.138Z,44.28
2023-03-30T23:08:29.629Z,44.53
2023-03-30T23:10:57.722Z,45.79
2023-03-30T23:13:26.353Z,45.30
2023-03-30T23:15:56.155Z,45.57
2023-03-30T23:18:24.017Z,43.70
2023-03-30T23:20:58.042Z,44.88
2023-03-30T23:23:27.022Z,43.92
2023-03-30T23:25:54.935Z,45.17
2023-03-30T23:28:22.858Z,45.70
2023-03-30T23:30:50.671Z,45.38
2023-03-30T23:33:18.567Z,44.57
2023-03-30T23:35:50.738Z,46.19
2023-03-30T23:38:20.927Z,44.17
2023-03-30T23:40:48.945Z,44.26
2023-03-30T23:43:17.020Z,44.73
2023-03-30T23:45:45.075Z,44.60
2023-03-30T23:48:12.984Z,43.23
2023-03-30T23:50:41.164Z,43.73
2023-03-30T23:53:09.419Z,43.31
2023-03-30T23:55:38.693Z,42.79
2023-03-30T23:58:06.749Z,42.50
